KFTW/FTW METAR and TAF weather

Enter ICAO airport designator
Station Type Date Time Source
KFTW METAR 2021/04/13 07:34 UTC NOAA

KFTW 130734Z 03009KT 10SM VCTS -RA OVC100 14/11 A2996 RMK AO2 LTG DSNT E-SW TSB13E28 P0004 T01390106


Station Type Date Time Source
KFTW Decoded METAR 2021/04/13 07:34 UTC NOAA

FORT WORTH MEACHAM INTERNATIONAL ., TX, United States (KFTW) 32-50N 097-22W 214M
Apr 13, 2021 - 03:34 AM EDT / 2021.04.13 0734 UTC
Wind: from the NNE (030 degrees) at 10 MPH (9 KT):0
Visibility: 10 mile(s):0
Sky conditions: overcast
Weather: thunder in the vicinity; light rain; Lightning observed
Precipitation last hour: 0.04 inches
Temperature: 57.0 F (13.9 C)
Dew Point: 51.1 F (10.6 C)
Relative Humidity: 80%
Pressure (altimeter): 29.96 in. Hg (1014 hPa)
ob: KFTW 130734Z 03009KT 10SM VCTS -RA OVC100 14/11 A2996 RMK AO2 LTG DSNT E-SW TSB13E28 P0004 T01390106
cycle: 7

Station Type Date Time Source
KFTW TAF 2021/04/13 06:30 UTC NOAA

TAF KFTW 130528Z 1306/1406 36010KT P6SM -RA VCTS BKN050CB
FM131200 01011KT P6SM -RA BKN040
FM140400 02010KT P6SM VCTS BKN025CB

Example: see airport list